createdAt,value
2024-01-15T00:02:36.265Z,1.67
2024-01-15T00:07:38.872Z,1.66
2024-01-15T00:12:42.892Z,1.62
2024-01-15T00:17:45.836Z,1.68
2024-01-15T00:22:48.520Z,1.68
2024-01-15T00:27:52.516Z,1.74
2024-01-15T00:32:55.211Z,1.64
2024-01-15T00:37:57.856Z,1.62
2024-01-15T00:43:03.208Z,1.60
2024-01-15T00:48:06.787Z,1.62
2024-01-15T00:53:09.524Z,1.67
2024-01-15T00:58:13.453Z,1.82
2024-01-15T01:03:16.226Z,1.77
2024-01-15T01:08:19.208Z,1.82
2024-01-15T01:13:23.842Z,1.84
2024-01-15T01:18:26.740Z,1.84
2024-01-15T01:23:29.427Z,1.82
2024-01-15T01:28:33.362Z,1.93
2024-01-15T01:33:36.042Z,1.93
2024-01-15T01:38:38.861Z,1.85
2024-01-15T01:43:42.872Z,1.90
2024-01-15T01:48:45.770Z,1.92
2024-01-15T01:53:48.547Z,1.89
2024-01-15T01:58:52.651Z,2.01
2024-01-15T02:03:57.630Z,1.90
2024-01-15T02:09:00.338Z,1.89
2024-01-15T02:14:05.303Z,1.95
2024-01-15T02:19:08.918Z,1.77
2024-01-15T02:24:13.646Z,1.96
2024-01-15T02:29:17.461Z,1.84
2024-01-15T02:34:20.138Z,1.90
2024-01-15T02:39:24.199Z,1.87
2024-01-15T02:44:26.806Z,1.93
2024-01-15T02:49:29.559Z,2.05
2024-01-15T02:54:33.603Z,2.09
2024-01-15T02:59:36.321Z,2.26
2024-01-15T03:04:38.947Z,2.22
2024-01-15T03:09:43.065Z,2.19
2024-01-15T03:14:45.697Z,2.15
2024-01-15T03:19:48.336Z,2.06
2024-01-15T03:24:52.455Z,2.12
2024-01-15T03:29:55.063Z,2.10
2024-01-15T03:34:57.756Z,2.14
2024-01-15T03:40:01.849Z,2.11
2024-01-15T03:45:05.192Z,2.04
2024-01-15T03:50:08.255Z,2.08
2024-01-15T03:55:12.178Z,2.10
2024-01-15T04:00:18.560Z,2.04
2024-01-15T04:05:21.338Z,2.02
2024-01-15T04:10:25.296Z,2.08
2024-01-15T04:15:27.992Z,2.04
2024-01-15T04:20:30.706Z,2.04
2024-01-15T04:25:34.654Z,2.06
2024-01-15T04:30:37.823Z,2.10
2024-01-15T04:35:40.544Z,2.15
2024-01-15T04:40:44.602Z,2.22
2024-01-15T04:45:47.285Z,1.94
2024-01-15T04:50:49.893Z,1.83
2024-01-15T04:55:53.836Z,1.83
2024-01-15T05:00:56.552Z,1.66
2024-01-15T05:05:59.243Z,1.68
2024-01-15T05:11:03.293Z,1.76
2024-01-15T05:16:06.593Z,1.74
2024-01-15T05:21:10.324Z,1.72
2024-01-15T05:26:14.307Z,1.88
2024-01-15T05:31:17.265Z,1.85
2024-01-15T05:36:20.049Z,1.89
2024-01-15T05:41:24.013Z,1.93
2024-01-15T05:46:26.611Z,1.94
2024-01-15T05:51:29.269Z,1.91
2024-01-15T05:56:33.230Z,1.93
2024-01-15T06:01:36.047Z,2.06
2024-01-15T06:06:38.806Z,2.03
2024-01-15T06:11:42.791Z,2.10
2024-01-15T06:16:45.402Z,2.15
2024-01-15T06:21:48.029Z,2.15
2024-01-15T06:26:52.081Z,2.22
2024-01-15T06:31:54.838Z,2.18
2024-01-15T06:36:57.611Z,2.18
2024-01-15T06:42:01.655Z,2.18
2024-01-15T06:47:04.375Z,2.24
2024-01-15T06:52:07.862Z,2.29
2024-01-15T06:57:11.856Z,2.28
2024-01-15T07:02:14.525Z,2.24
2024-01-15T07:07:17.265Z,2.29
2024-01-15T07:12:21.209Z,2.24
2024-01-15T07:17:23.930Z,2.35
2024-01-15T07:22:26.518Z,2.27
2024-01-15T07:27:30.479Z,2.23
2024-01-15T07:32:33.614Z,2.13
2024-01-15T07:37:36.266Z,2.04
2024-01-15T07:42:40.316Z,2.04
2024-01-15T07:47:43.139Z,2.00
2024-01-15T07:52:45.872Z,1.96
2024-01-15T07:57:56.579Z,2.15
2024-01-15T08:03:05.785Z,1.94
2024-01-15T08:08:08.448Z,1.93
2024-01-15T08:13:12.380Z,2.00
2024-01-15T08:18:15.152Z,1.92
2024-01-15T08:23:17.807Z,1.96
2024-01-15T08:28:21.739Z,2.02
2024-01-15T08:33:24.646Z,2.10
2024-01-15T08:38:27.334Z,1.99
2024-01-15T08:43:32.097Z,2.03
2024-01-15T08:48:34.894Z,1.98
2024-01-15T08:53:37.520Z,2.13
2024-01-15T08:58:41.445Z,2.01
2024-01-15T09:03:44.344Z,2.16
2024-01-15T09:08:46.987Z,2.16
2024-01-15T09:13:50.925Z,2.08
2024-01-15T09:18:53.570Z,2.12
2024-01-15T09:23:56.237Z,2.02
2024-01-15T09:29:00.768Z,2.06
2024-01-15T09:34:03.502Z,2.13
2024-01-15T09:39:09.439Z,2.20
2024-01-15T09:44:14.481Z,2.01
2024-01-15T09:49:17.250Z,1.76
2024-01-15T09:54:19.964Z,1.40
2024-01-15T09:59:26.348Z,1.34
2024-01-15T10:04:29.166Z,1.23
2024-01-15T10:09:32.363Z,1.29
2024-01-15T10:14:36.683Z,1.47
2024-01-15T10:19:39.344Z,1.40
2024-01-15T10:24:43.092Z,1.46
2024-01-15T10:29:47.073Z,1.48
2024-01-15T10:34:49.887Z,1.49
2024-01-15T10:39:53.058Z,1.48
2024-01-15T10:44:57.083Z,1.36
2024-01-15T10:50:00.606Z,1.44
2024-01-15T10:55:09.642Z,1.39
2024-01-15T11:00:17.483Z,1.40
2024-01-15T11:05:23.206Z,1.46
2024-01-15T11:10:43.091Z,1.32
2024-01-15T11:16:00.962Z,1.23
2024-01-15T11:21:24.345Z,1.04
2024-01-15T11:26:37.131Z,1.11
2024-01-15T11:32:02.129Z,1.06
2024-01-15T11:37:05.693Z,1.16
2024-01-15T11:42:08.286Z,1.07
2024-01-15T11:47:16.358Z,1.06
2024-01-15T11:52:20.753Z,0.99
2024-01-15T11:57:30.938Z,1.26
2024-01-15T12:02:34.977Z,1.13
2024-01-15T12:07:37.587Z,1.07
2024-01-15T12:12:49.425Z,1.15
2024-01-15T12:17:53.630Z,0.95
2024-01-15T12:23:01.710Z,0.98
2024-01-15T12:28:07.180Z,1.02
2024-01-15T12:33:11.238Z,1.08
2024-01-15T12:38:13.953Z,0.99
2024-01-15T12:43:16.562Z,1.14
2024-01-15T12:48:20.631Z,0.99
2024-01-15T12:53:23.260Z,1.13
2024-01-15T12:58:25.866Z,1.02
2024-01-15T13:03:29.947Z,0.77
2024-01-15T13:08:32.591Z,0.70
2024-01-15T13:13:35.464Z,0.74
2024-01-15T13:18:39.559Z,0.73
2024-01-15T13:23:42.217Z,0.77
2024-01-15T13:28:44.788Z,0.53
2024-01-15T13:33:48.832Z,0.51
2024-01-15T13:38:52.137Z,0.49
2024-01-15T13:43:56.144Z,0.44
2024-01-15T13:49:00.354Z,0.46
2024-01-15T13:54:05.341Z,0.41
2024-01-15T13:59:07.973Z,0.49
2024-01-15T14:04:11.919Z,0.41
2024-01-15T14:09:15.626Z,0.37
2024-01-15T14:14:18.590Z,0.37
2024-01-15T14:19:23.115Z,0.42
2024-01-15T14:24:25.908Z,0.47
2024-01-15T14:29:28.603Z,0.32
2024-01-15T14:34:32.721Z,0.42
2024-01-15T14:39:35.648Z,0.30
2024-01-15T14:44:39.337Z,0.14
2024-01-15T14:49:43.349Z,0.21
2024-01-15T14:54:45.947Z,0.15
2024-01-15T14:59:48.627Z,0.11
2024-01-15T15:04:52.644Z,-0.03
2024-01-15T15:09:55.371Z,0.01
2024-01-15T15:15:04.380Z,-0.06
2024-01-15T15:20:14.057Z,-0.03
2024-01-15T15:25:16.856Z,-0.04
2024-01-15T15:30:19.512Z,-0.06
2024-01-15T15:35:23.577Z,-0.09
2024-01-15T15:40:26.250Z,0.00
2024-01-15T15:45:28.847Z,0.03
2024-01-15T15:50:34.468Z,0.11
2024-01-15T15:55:38.008Z,-0.07
2024-01-15T16:00:40.660Z,-0.09
2024-01-15T16:05:51.916Z,-0.10
2024-01-15T16:10:56.586Z,-0.07
2024-01-15T16:23:08.992Z,-0.11
2024-01-15T16:23:36.272Z,-0.08
2024-01-15T16:26:46.022Z,-0.13
2024-01-15T16:31:48.830Z,-0.18
2024-01-15T16:36:52.850Z,-0.25
2024-01-15T16:41:55.571Z,-0.27
2024-01-15T16:47:03.697Z,-0.35
2024-01-15T16:52:09.906Z,-0.44
2024-01-15T16:57:12.493Z,-0.50
2024-01-15T17:02:15.225Z,-0.44
2024-01-15T17:07:19.165Z,-0.55
2024-01-15T17:12:21.942Z,-0.56
2024-01-15T17:17:24.628Z,-0.54
2024-01-15T17:22:30.177Z,-0.57
2024-01-15T17:27:32.795Z,-0.56
2024-01-15T17:32:35.602Z,-0.53
2024-01-15T17:37:39.586Z,-0.55
2024-01-15T17:42:42.538Z,-0.55
2024-01-15T17:47:45.257Z,-0.55
2024-01-15T17:52:49.333Z,-0.55
2024-01-15T17:57:52.371Z,-0.57
2024-01-15T18:02:56.722Z,-0.60
2024-01-15T18:08:00.942Z,-0.59
2024-01-15T18:13:03.531Z,-0.59
2024-01-15T18:18:07.030Z,-0.60
2024-01-15T18:23:11.219Z,-0.60
2024-01-15T18:28:15.661Z,-0.58
2024-01-15T18:33:18.735Z,-0.59
2024-01-15T18:38:22.852Z,-0.60
2024-01-15T18:43:25.455Z,-0.59
2024-01-15T18:48:28.526Z,-0.58
2024-01-15T18:53:32.558Z,-0.56
2024-01-15T18:58:41.847Z,-0.53
2024-01-15T19:03:44.637Z,-0.48
2024-01-15T19:08:48.743Z,-0.50
2024-01-15T19:13:51.514Z,-0.49
2024-01-15T19:18:54.592Z,-0.46
2024-01-15T19:23:58.625Z,-0.44
2024-01-15T19:29:01.413Z,-0.41
2024-01-15T19:34:05.265Z,-0.39
2024-01-15T19:39:10.526Z,-0.33
2024-01-15T19:44:13.207Z,-0.30
2024-01-15T19:49:15.896Z,-0.31
2024-01-15T19:54:20.300Z,-0.23
2024-01-15T19:59:22.983Z,-0.25
2024-01-15T20:04:25.768Z,-0.29
2024-01-15T20:09:29.843Z,-0.25
2024-01-15T20:14:32.706Z,-0.27
2024-01-15T20:19:35.497Z,-0.27
2024-01-15T20:24:39.503Z,-0.19
2024-01-15T20:29:42.225Z,-0.24
2024-01-15T20:34:44.926Z,-0.32
2024-01-15T20:39:49.081Z,-0.31
2024-01-15T20:44:51.697Z,-0.33
2024-01-15T20:49:54.393Z,-0.29
2024-01-15T20:54:58.319Z,-0.32
2024-01-15T21:00:01.074Z,-0.39
2024-01-15T21:05:03.913Z,-0.34
2024-01-15T21:10:09.127Z,-0.30
2024-01-15T21:15:11.812Z,-0.33
2024-01-15T21:20:14.837Z,-0.36
2024-01-15T21:25:18.985Z,-0.42
2024-01-15T21:30:23.283Z,-0.46
2024-01-15T21:35:25.893Z,-0.41
2024-01-15T21:40:29.886Z,-0.43
2024-01-15T21:45:32.456Z,-0.41
2024-01-15T21:50:35.536Z,-0.37
2024-01-15T21:55:39.574Z,-0.32
2024-01-15T22:00:42.219Z,-0.32
2024-01-15T22:05:45.001Z,-0.38
2024-01-15T22:10:49.013Z,-0.32
2024-01-15T22:15:51.792Z,-0.23
2024-01-15T22:20:54.522Z,-0.24
2024-01-15T22:25:58.552Z,-0.31
2024-01-15T22:31:01.191Z,-0.33
2024-01-15T22:36:03.796Z,-0.40
2024-01-15T22:41:07.775Z,-0.42
2024-01-15T22:46:11.186Z,-0.42
2024-01-15T22:51:14.564Z,-0.47
2024-01-15T22:56:20.901Z,-0.53
2024-01-15T23:01:24.271Z,-0.57
2024-01-15T23:06:27.156Z,-0.64
2024-01-15T23:11:31.096Z,-0.73
2024-01-15T23:16:33.689Z,-0.80
2024-01-15T23:21:36.349Z,-0.86
2024-01-15T23:26:40.329Z,-0.87
2024-01-15T23:31:43.072Z,-0.89
2024-01-15T23:36:46.920Z,-0.89
2024-01-15T23:41:52.440Z,-0.88
2024-01-15T23:46:55.062Z,-0.88
2024-01-15T23:51:58.049Z,-0.89
2024-01-15T23:57:01.967Z,-0.90
